createdAt,value
2023-01-02T00:01:37.524Z,37.80
2023-01-02T00:04:10.687Z,36.00
2023-01-02T00:06:44.763Z,42.70
2023-01-02T00:09:18.672Z,38.60
2023-01-02T00:11:51.408Z,38.60
2023-01-02T00:14:26.243Z,37.30
2023-01-02T00:16:58.703Z,52.20
2023-01-02T00:19:31.193Z,41.90
2023-01-02T00:22:06.250Z,39.90
2023-01-02T00:24:40.159Z,39.20
2023-01-02T00:27:14.182Z,44.50
2023-01-02T00:29:47.101Z,43.60
2023-01-02T00:32:19.922Z,40.20
2023-01-02T00:34:52.527Z,39.40
2023-01-02T00:37:24.984Z,36.60
2023-01-02T00:39:57.731Z,38.20
2023-01-02T00:42:30.717Z,37.60
2023-01-02T00:45:05.267Z,36.80
2023-01-02T00:47:37.663Z,38.40
2023-01-02T00:50:11.815Z,40.70
2023-01-02T00:52:46.013Z,34.70
2023-01-02T00:55:18.821Z,39.40
2023-01-02T00:57:51.231Z,36.70
2023-01-02T01:00:24.797Z,39.30
2023-01-02T01:03:00.544Z,33.70
2023-01-02T01:05:33.403Z,32.60
2023-01-02T01:08:05.802Z,24.00
2023-01-02T01:10:42.807Z,31.40
2023-01-02T01:13:15.193Z,32.80
2023-01-02T01:15:47.727Z,29.90
2023-01-02T01:18:20.205Z,31.70
2023-01-02T01:20:53.102Z,34.80
2023-01-02T01:23:25.432Z,42.00
2023-01-02T01:25:58.299Z,39.70
2023-01-02T01:28:30.604Z,36.60
2023-01-02T01:31:07.292Z,36.30
2023-01-02T01:33:44.364Z,37.80
2023-01-02T01:36:18.738Z,36.00
2023-01-02T01:38:51.746Z,33.80
2023-01-02T01:41:27.451Z,42.50
2023-01-02T01:44:01.685Z,36.70
2023-01-02T01:46:38.941Z,35.60
2023-01-02T01:49:16.364Z,36.20
2023-01-02T01:51:56.365Z,33.30
2023-01-02T01:54:31.972Z,37.70
2023-01-02T01:57:06.807Z,39.50
2023-01-02T01:59:39.714Z,37.00
2023-01-02T02:02:12.493Z,32.00
2023-01-02T02:04:47.241Z,26.00
2023-01-02T02:07:19.925Z,37.40
2023-01-02T02:09:56.841Z,40.40
2023-01-02T02:12:31.382Z,37.20
2023-01-02T02:15:03.842Z,40.90
2023-01-02T02:17:46.712Z,38.70
2023-01-02T02:20:32.202Z,36.40
2023-01-02T02:23:44.816Z,37.00
2023-01-02T02:26:38.965Z,33.30
2023-01-02T02:29:37.279Z,35.60
2023-01-02T02:32:17.764Z,35.60
2023-01-02T02:34:56.083Z,40.70
2023-01-02T02:37:35.021Z,36.40
2023-01-02T02:40:29.311Z,35.70
2023-01-02T02:45:42.365Z,33.00
2023-01-02T02:48:22.773Z,37.70
2023-01-02T02:51:02.767Z,28.60
2023-01-02T02:53:39.543Z,30.70
2023-01-02T02:56:14.969Z,36.00
2023-01-02T02:58:48.111Z,38.30
2023-01-02T03:01:30.925Z,32.80
2023-01-02T03:04:03.920Z,32.10
2023-01-02T03:06:52.323Z,31.90
2023-01-02T03:09:35.744Z,29.10
2023-01-02T03:12:20.263Z,30.90
2023-01-02T03:15:08.797Z,37.70
2023-01-02T03:17:56.065Z,30.10
2023-01-02T03:20:35.692Z,32.00
2023-01-02T03:23:13.082Z,35.60
2023-01-02T03:25:48.026Z,31.40
2023-01-02T03:28:24.714Z,30.30
2023-01-02T03:31:03.536Z,32.60
2023-01-02T03:33:41.452Z,37.40
2023-01-02T03:36:18.960Z,32.20
2023-01-02T03:38:57.934Z,40.00
2023-01-02T03:41:34.831Z,30.50
2023-01-02T03:44:10.974Z,36.50
2023-01-02T03:46:50.264Z,40.00
2023-01-02T03:49:28.844Z,41.70
2023-01-02T03:52:01.477Z,51.20
2023-01-02T03:54:34.863Z,55.50
2023-01-02T03:57:15.226Z,56.20
2023-01-02T03:59:59.663Z,54.90
2023-01-02T04:02:39.226Z,53.70
2023-01-02T04:05:17.090Z,50.20
2023-01-02T04:07:58.044Z,58.00
2023-01-02T04:10:32.679Z,51.10
2023-01-02T04:13:10.474Z,54.00
2023-01-02T04:15:45.250Z,56.70
2023-01-02T04:18:22.084Z,51.10
2023-01-02T04:21:01.283Z,55.90
2023-01-02T04:23:39.463Z,55.30
2023-01-02T04:26:16.983Z,47.70
2023-01-02T04:28:50.204Z,54.60
2023-01-02T04:31:27.239Z,51.80
2023-01-02T04:34:02.533Z,53.10
2023-01-02T04:36:42.056Z,56.40
2023-01-02T04:39:14.843Z,57.00
2023-01-02T04:41:47.365Z,56.20
2023-01-02T04:44:20.010Z,56.30
2023-01-02T04:46:52.490Z,55.00
2023-01-02T04:49:27.129Z,56.10
2023-01-02T04:51:59.651Z,53.00
2023-01-02T04:54:33.723Z,51.10
2023-01-02T04:57:06.357Z,54.00
2023-01-02T04:59:38.824Z,52.60
2023-01-02T05:02:11.878Z,54.00
2023-01-02T05:04:44.444Z,38.30
2023-01-02T05:07:17.092Z,51.00
2023-01-02T05:09:49.644Z,49.40
2023-01-02T05:12:22.080Z,48.10
2023-01-02T05:14:54.732Z,46.90
2023-01-02T05:17:27.244Z,50.80
2023-01-02T05:19:59.942Z,46.10
2023-01-02T05:22:49.833Z,48.00
2023-01-02T05:25:22.467Z,48.40
2023-01-02T05:27:57.508Z,45.80
2023-01-02T05:30:32.580Z,45.40
2023-01-02T05:33:05.265Z,40.40
2023-01-02T05:35:38.642Z,44.40
2023-01-02T05:40:42.134Z,40.00
2023-01-02T05:43:14.751Z,40.10
2023-01-02T05:45:47.253Z,42.30
2023-01-02T05:48:22.274Z,42.00
2023-01-02T05:50:55.224Z,40.00
2023-01-02T05:53:27.780Z,38.30
2023-01-02T05:56:07.791Z,40.50
2023-01-02T05:58:42.321Z,37.60
2023-01-02T06:01:18.521Z,42.40
2023-01-02T06:03:52.398Z,38.10
2023-01-02T06:06:27.788Z,36.70
2023-01-02T06:09:01.660Z,39.60
2023-01-02T06:11:34.721Z,34.80
2023-01-02T06:14:09.250Z,33.40
2023-01-02T06:16:42.132Z,35.80
2023-01-02T06:19:14.870Z,36.80
2023-01-02T06:21:47.325Z,38.70
2023-01-02T06:24:20.064Z,38.40
2023-01-02T06:26:52.893Z,28.80
2023-01-02T06:29:25.654Z,37.40
2023-01-02T06:31:58.951Z,30.30
2023-01-02T06:34:31.621Z,31.30
2023-01-02T06:37:09.519Z,33.30
2023-01-02T06:39:42.696Z,31.80
2023-01-02T06:42:15.682Z,28.00
2023-01-02T06:44:48.425Z,28.20
2023-01-02T06:47:20.976Z,30.00
2023-01-02T06:49:56.424Z,31.40
2023-01-02T06:52:31.207Z,32.60
2023-01-02T06:55:06.316Z,27.00
2023-01-02T06:57:38.735Z,29.10
2023-01-02T07:00:13.523Z,31.00
2023-01-02T07:02:46.242Z,31.70
2023-01-02T07:05:24.374Z,22.40
2023-01-02T07:07:57.306Z,28.00
2023-01-02T07:10:29.952Z,23.20
2023-01-02T07:13:03.823Z,25.10
2023-01-02T07:15:36.825Z,24.20
2023-01-02T07:18:09.601Z,62.00
2023-01-02T07:20:42.541Z,39.50
2023-01-02T07:23:15.693Z,23.60
2023-01-02T07:25:52.444Z,25.00
2023-01-02T07:28:25.705Z,23.80
2023-01-02T07:31:02.608Z,21.70
2023-01-02T07:33:35.835Z,26.80
2023-01-02T07:36:12.128Z,20.70
2023-01-02T07:38:44.932Z,24.60
2023-01-02T07:41:20.210Z,25.20
2023-01-02T07:43:53.254Z,25.20
2023-01-02T07:46:26.161Z,23.50
2023-01-02T07:48:58.923Z,30.50
2023-01-02T07:51:32.686Z,28.80
2023-01-02T07:54:05.608Z,30.60
2023-01-02T07:56:38.474Z,38.70
2023-01-02T07:59:11.474Z,27.90
2023-01-02T08:01:44.248Z,27.40
2023-01-02T08:04:17.020Z,28.40
2023-01-02T08:06:49.760Z,31.50
2023-01-02T08:09:22.677Z,30.20
2023-01-02T08:11:55.535Z,30.00
2023-01-02T08:14:28.202Z,27.90
2023-01-02T08:17:12.706Z,31.30
2023-01-02T08:19:45.421Z,27.30
2023-01-02T08:22:18.044Z,31.30
2023-01-02T08:24:50.689Z,22.90
2023-01-02T08:27:23.943Z,23.40
2023-01-02T08:29:57.667Z,28.10
2023-01-02T08:32:30.427Z,26.70
2023-01-02T08:35:02.906Z,26.20
2023-01-02T08:37:38.633Z,21.80
2023-01-02T08:40:15.035Z,29.10
2023-01-02T08:42:48.105Z,28.50
2023-01-02T08:45:20.923Z,28.00
2023-01-02T08:47:54.192Z,27.90
2023-01-02T08:50:26.984Z,22.50
2023-01-02T08:52:59.812Z,24.40
2023-01-02T08:55:33.282Z,21.70
2023-01-02T08:58:05.851Z,19.70
2023-01-02T09:00:38.350Z,18.40
2023-01-02T09:03:16.985Z,22.20
2023-01-02T09:05:49.983Z,16.60
2023-01-02T09:08:23.225Z,17.90
2023-01-02T09:10:55.968Z,24.30
2023-01-02T09:13:28.743Z,23.50
2023-01-02T09:16:01.546Z,21.20
2023-01-02T09:18:34.850Z,21.20
2023-01-02T09:21:08.146Z,25.30
2023-01-02T09:23:41.563Z,20.80
2023-01-02T09:26:15.512Z,20.20
2023-01-02T09:28:48.444Z,22.90
2023-01-02T09:31:22.651Z,25.30
2023-01-02T09:33:56.933Z,24.30
2023-01-02T09:36:29.909Z,24.80
2023-01-02T09:39:03.732Z,22.60
2023-01-02T09:41:40.629Z,20.80
2023-01-02T09:44:20.252Z,20.70
2023-01-02T09:46:57.296Z,18.40
2023-01-02T09:49:32.966Z,19.50
2023-01-02T09:52:06.117Z,20.70
2023-01-02T09:54:39.563Z,19.10
2023-01-02T09:57:27.616Z,17.90
2023-01-02T10:00:06.404Z,19.80
2023-01-02T10:03:08.659Z,22.30
2023-01-02T10:06:13.022Z,19.90
2023-01-02T10:09:03.901Z,18.40
2023-01-02T10:11:55.439Z,17.40
2023-01-02T10:14:44.335Z,16.20
2023-01-02T10:17:19.026Z,18.00
2023-01-02T10:19:58.139Z,16.60
2023-01-02T10:22:37.799Z,15.90
2023-01-02T10:25:19.273Z,18.40
2023-01-02T10:27:56.250Z,15.70
2023-01-02T10:30:34.880Z,15.10
2023-01-02T10:33:12.639Z,15.20
2023-01-02T10:35:52.636Z,18.90
2023-01-02T10:38:25.590Z,19.20
2023-01-02T10:41:01.402Z,18.20
2023-01-02T10:43:35.461Z,18.10
2023-01-02T10:46:08.710Z,18.10
2023-01-02T10:48:48.530Z,16.60
2023-01-02T10:51:25.813Z,14.70
2023-01-02T10:54:07.874Z,14.70
2023-01-02T10:56:46.740Z,18.00
2023-01-02T10:59:26.209Z,14.10
2023-01-02T11:02:01.594Z,15.80
2023-01-02T11:04:34.635Z,16.50
2023-01-02T11:07:07.702Z,16.50
2023-01-02T11:09:42.943Z,17.30
2023-01-02T11:12:16.558Z,15.20
2023-01-02T11:14:50.427Z,17.90
2023-01-02T11:17:24.430Z,15.10
2023-01-02T11:19:58.622Z,14.40
2023-01-02T11:22:41.244Z,14.60
2023-01-02T11:25:24.423Z,13.00
2023-01-02T11:28:01.475Z,13.90
2023-01-02T11:30:46.073Z,15.60
2023-01-02T11:33:29.262Z,12.70
2023-01-02T11:36:17.033Z,15.80
2023-01-02T11:38:51.717Z,12.00
2023-01-02T11:41:44.328Z,13.40
2023-01-02T11:44:23.367Z,14.30
2023-01-02T11:46:59.225Z,11.60
2023-01-02T11:49:38.423Z,10.40
2023-01-02T11:52:17.802Z,12.90
2023-01-02T11:54:59.270Z,12.00
2023-01-02T11:57:40.720Z,17.20
2023-01-02T12:00:18.636Z,14.90
2023-01-02T12:02:54.319Z,18.60
2023-01-02T12:05:37.875Z,20.20
2023-01-02T12:11:00.127Z,17.20
2023-01-02T12:13:57.743Z,17.40
2023-01-02T12:16:38.230Z,16.40
2023-01-02T12:19:39.824Z,15.30
2023-01-02T12:22:33.008Z,15.40
2023-01-02T12:25:25.789Z,15.00
2023-01-02T12:28:04.512Z,15.00
2023-01-02T12:30:41.472Z,15.40
2023-01-02T12:33:36.952Z,16.50
2023-01-02T12:36:27.005Z,19.30
2023-01-02T12:39:20.082Z,17.10
2023-01-02T12:42:02.527Z,15.90
2023-01-02T12:44:49.752Z,17.10
2023-01-02T12:47:50.163Z,14.40
2023-01-02T12:50:49.053Z,16.40
2023-01-02T12:53:41.202Z,16.00
2023-01-02T12:56:19.832Z,12.90
2023-01-02T12:59:04.559Z,11.30
2023-01-02T13:01:43.816Z,15.40
2023-01-02T13:04:22.156Z,13.20
2023-01-02T13:07:00.243Z,13.30
2023-01-02T13:09:36.986Z,14.40
2023-01-02T13:12:16.261Z,14.60
2023-01-02T13:14:53.884Z,14.30
2023-01-02T13:17:45.304Z,16.50
2023-01-02T13:20:31.492Z,13.80
2023-01-02T13:23:14.270Z,11.20
2023-01-02T13:25:51.016Z,13.60
2023-01-02T13:28:24.939Z,13.30
2023-01-02T13:31:44.957Z,13.30
2023-01-02T13:34:08.424Z,13.70
2023-01-02T13:36:47.815Z,15.60
2023-01-02T13:39:28.934Z,16.60
2023-01-02T13:42:22.538Z,18.10
2023-01-02T13:45:01.424Z,19.50
2023-01-02T13:47:37.906Z,13.70
2023-01-02T13:50:17.614Z,14.00
2023-01-02T13:53:04.584Z,16.40
2023-01-02T13:55:38.867Z,12.10
2023-01-02T13:58:47.230Z,15.10
2023-01-02T14:02:03.410Z,13.80
2023-01-02T14:04:44.041Z,14.80
2023-01-02T14:07:50.748Z,15.80
2023-01-02T14:10:41.110Z,15.90
2023-01-02T14:13:37.454Z,15.40
2023-01-02T14:16:41.717Z,12.60
2023-01-02T14:19:26.209Z,19.30
2023-01-02T14:22:13.331Z,18.10
2023-01-02T14:24:49.860Z,14.50
2023-01-02T14:27:27.305Z,17.30
2023-01-02T14:30:05.841Z,14.80
2023-01-02T14:32:42.912Z,17.00
2023-01-02T14:35:31.801Z,19.10
2023-01-02T14:38:19.290Z,15.30
2023-01-02T14:40:54.957Z,19.90
2023-01-02T14:43:34.395Z,15.20
2023-01-02T14:46:16.765Z,16.60
2023-01-02T14:48:58.725Z,18.00
2023-01-02T14:51:37.442Z,18.40
2023-01-02T14:54:19.668Z,18.30
2023-01-02T14:57:03.212Z,19.90
2023-01-02T14:59:42.994Z,16.50
2023-01-02T15:02:21.798Z,17.10
2023-01-02T15:04:59.162Z,17.80
2023-01-02T15:07:34.779Z,18.70
2023-01-02T15:10:15.401Z,23.00
2023-01-02T15:13:06.554Z,22.00
2023-01-02T15:15:43.235Z,15.80
2023-01-02T15:18:23.561Z,20.20
2023-01-02T15:20:58.451Z,18.70
2023-01-02T15:23:31.508Z,20.20
2023-01-02T15:26:31.864Z,20.20
2023-01-02T15:29:02.399Z,19.20
2023-01-02T15:31:35.716Z,16.70
2023-01-02T15:34:08.234Z,17.10
2023-01-02T15:36:43.171Z,19.00
2023-01-02T15:39:20.543Z,22.40
2023-01-02T15:41:59.923Z,20.30
2023-01-02T15:44:53.567Z,23.80
2023-01-02T15:47:28.437Z,25.70
2023-01-02T15:50:05.335Z,32.00
2023-01-02T15:52:40.529Z,34.90
2023-01-02T15:55:17.380Z,24.60
2023-01-02T15:57:55.652Z,22.60
2023-01-02T16:00:38.499Z,21.40
2023-01-02T16:03:14.455Z,22.10
2023-01-02T16:05:59.915Z,22.30
2023-01-02T16:08:37.781Z,23.50
2023-01-02T16:11:17.501Z,28.80
2023-01-02T16:14:13.021Z,27.20
2023-01-02T16:16:53.384Z,25.30
2023-01-02T16:19:36.259Z,28.70
2023-01-02T16:22:18.802Z,29.00
2023-01-02T16:24:59.791Z,23.90
2023-01-02T16:27:35.969Z,24.60
2023-01-02T16:30:32.638Z,26.40
2023-01-02T16:33:21.078Z,23.10
2023-01-02T16:36:00.893Z,27.00
2023-01-02T16:38:46.313Z,28.10
2023-01-02T16:42:14.552Z,26.20
2023-01-02T16:44:59.803Z,25.90
2023-01-02T16:47:40.404Z,27.30
2023-01-02T16:50:23.750Z,24.90
2023-01-02T16:53:01.612Z,23.70
2023-01-02T16:55:37.775Z,22.40
2023-01-02T16:58:15.994Z,23.40
2023-01-02T17:01:01.539Z,27.10
2023-01-02T17:03:38.741Z,27.10
2023-01-02T17:06:20.380Z,40.50
2023-01-02T17:08:55.617Z,30.40
2023-01-02T17:11:32.372Z,27.50
2023-01-02T17:14:09.103Z,36.60
2023-01-02T17:16:44.883Z,68.80
2023-01-02T17:19:22.906Z,51.90
2023-01-02T17:21:59.709Z,35.10
2023-01-02T17:24:35.923Z,33.50
2023-01-02T17:27:12.268Z,30.00
2023-01-02T17:29:47.403Z,33.80
2023-01-02T17:32:26.801Z,32.80
2023-01-02T17:35:05.473Z,33.60
2023-01-02T17:37:42.761Z,34.00
2023-01-02T17:40:21.283Z,31.30
2023-01-02T17:42:59.624Z,36.00
2023-01-02T17:45:38.659Z,39.80
2023-01-02T17:48:20.030Z,39.10
2023-01-02T17:50:59.615Z,43.30
2023-01-02T17:53:35.580Z,40.80
2023-01-02T17:56:20.665Z,39.20
2023-01-02T17:58:59.607Z,38.00
2023-01-02T18:01:40.054Z,40.50
2023-01-02T18:04:17.300Z,46.80
2023-01-02T18:06:54.015Z,51.90
2023-01-02T18:09:31.118Z,58.40
2023-01-02T18:12:08.111Z,58.40
2023-01-02T18:14:47.726Z,52.00
2023-01-02T18:17:30.339Z,47.40
2023-01-02T18:20:09.860Z,47.10
2023-01-02T18:22:50.123Z,44.30
2023-01-02T18:25:29.820Z,42.80
2023-01-02T18:28:16.594Z,41.80
2023-01-02T18:30:56.777Z,41.60
2023-01-02T18:33:37.506Z,40.40
2023-01-02T18:36:27.434Z,39.00
2023-01-02T18:39:23.702Z,38.00
2023-01-02T18:42:17.909Z,36.30
2023-01-02T18:44:57.041Z,37.10
2023-01-02T18:47:38.633Z,36.80
2023-01-02T18:50:35.734Z,38.60
2023-01-02T18:53:25.509Z,33.10
2023-01-02T18:56:19.616Z,39.10
2023-01-02T18:59:08.081Z,39.90
2023-01-02T19:01:53.193Z,40.50
2023-01-02T19:04:36.588Z,35.70
2023-01-02T19:07:31.542Z,51.90
2023-01-02T19:10:36.181Z,46.70
2023-01-02T19:13:22.423Z,41.30
2023-01-02T19:16:02.669Z,44.00
2023-01-02T19:18:50.412Z,45.40
2023-01-02T19:21:31.415Z,41.90
2023-01-02T19:24:19.836Z,42.60
2023-01-02T19:27:01.033Z,40.60
2023-01-02T19:29:40.149Z,43.00
2023-01-02T19:32:30.155Z,42.80
2023-01-02T19:35:40.903Z,49.40
2023-01-02T19:38:31.169Z,45.00
2023-01-02T19:41:07.794Z,39.40
2023-01-02T19:43:43.909Z,40.10
2023-01-02T19:46:21.484Z,38.30
2023-01-02T19:48:58.305Z,36.60
2023-01-02T19:51:35.118Z,36.80
2023-01-02T19:54:11.954Z,37.50
2023-01-02T19:56:48.264Z,39.10
2023-01-02T19:59:32.263Z,40.60
2023-01-02T20:02:09.614Z,37.70
2023-01-02T20:04:46.827Z,36.70
2023-01-02T20:07:25.725Z,35.00
2023-01-02T20:10:05.413Z,32.40
2023-01-02T20:12:43.219Z,35.20
2023-01-02T20:15:24.631Z,28.30
2023-01-02T20:18:08.330Z,30.00
2023-01-02T20:20:48.018Z,31.50
2023-01-02T20:23:29.703Z,25.50
2023-01-02T20:26:06.792Z,23.70
2023-01-02T20:28:42.862Z,25.00
2023-01-02T20:31:19.108Z,22.70
2023-01-02T20:33:58.158Z,25.00
2023-01-02T20:36:40.604Z,26.60
2023-01-02T20:39:19.694Z,27.00
2023-01-02T20:42:00.649Z,26.80
2023-01-02T20:44:37.894Z,24.00
2023-01-02T20:47:16.476Z,27.00
2023-01-02T20:49:55.854Z,25.10
2023-01-02T20:52:35.013Z,26.20
2023-01-02T20:55:13.114Z,26.80
2023-01-02T20:57:51.531Z,31.30
2023-01-02T21:00:26.981Z,24.30
2023-01-02T21:03:00.517Z,22.80
2023-01-02T21:05:33.344Z,22.60
2023-01-02T21:08:06.114Z,22.60
2023-01-02T21:10:38.743Z,25.60
2023-01-02T21:13:12.393Z,21.40
2023-01-02T21:15:49.920Z,26.30
2023-01-02T21:18:24.373Z,25.90
2023-01-02T21:21:00.753Z,24.80
2023-01-02T21:23:37.053Z,24.80
2023-01-02T21:26:12.104Z,24.30
2023-01-02T21:28:47.798Z,27.70
2023-01-02T21:31:23.032Z,26.30
2023-01-02T21:33:55.956Z,26.10
2023-01-02T21:36:28.639Z,28.20
2023-01-02T21:39:01.232Z,29.70
2023-01-02T21:41:52.627Z,29.60
2023-01-02T21:44:25.207Z,28.00
2023-01-02T21:46:58.452Z,29.10
2023-01-02T21:49:31.431Z,27.40
2023-01-02T21:52:03.947Z,29.60
2023-01-02T21:54:36.853Z,32.90
2023-01-02T21:57:10.606Z,29.10
2023-01-02T22:02:18.191Z,25.10
2023-01-02T22:04:51.233Z,28.30
2023-01-02T22:07:35.934Z,30.70
2023-01-02T22:10:13.451Z,27.00
2023-01-02T22:12:48.314Z,29.10
2023-01-02T22:15:20.977Z,27.00
2023-01-02T22:17:54.232Z,28.60
2023-01-02T22:20:26.660Z,24.70
2023-01-02T22:22:59.283Z,28.00
2023-01-02T22:25:33.995Z,25.50
2023-01-02T22:28:06.864Z,25.40
2023-01-02T22:30:42.550Z,25.60
2023-01-02T22:33:16.300Z,23.80
2023-01-02T22:35:49.670Z,23.10
2023-01-02T22:38:22.953Z,22.90
2023-01-02T22:40:56.538Z,21.60
2023-01-02T22:46:05.332Z,20.40
2023-01-02T22:48:42.754Z,23.00
2023-01-02T22:51:17.194Z,24.50
2023-01-02T22:53:50.972Z,20.80
2023-01-02T22:56:25.625Z,23.80
2023-01-02T22:59:00.648Z,21.40
2023-01-02T23:01:36.044Z,21.90
2023-01-02T23:04:16.114Z,22.20
2023-01-02T23:07:14.039Z,25.10
2023-01-02T23:09:42.303Z,21.70
2023-01-02T23:12:15.162Z,21.50
2023-01-02T23:14:47.754Z,23.40
2023-01-02T23:17:37.473Z,20.70
2023-01-02T23:20:11.874Z,21.00
2023-01-02T23:22:44.312Z,21.60
2023-01-02T23:25:17.514Z,19.60
2023-01-02T23:27:50.363Z,22.20
2023-01-02T23:30:23.209Z,20.20
2023-01-02T23:32:56.104Z,20.90
2023-01-02T23:35:28.773Z,19.20
2023-01-02T23:38:01.564Z,19.30
2023-01-02T23:40:34.553Z,21.00
2023-01-02T23:43:07.103Z,20.90
2023-01-02T23:45:39.865Z,24.20
2023-01-02T23:48:12.445Z,21.10
2023-01-02T23:50:47.472Z,21.70
2023-01-02T23:53:20.951Z,19.80
2023-01-02T23:55:53.682Z,19.40
2023-01-02T23:58:26.621Z,22.60
